createdAt,value
2023-01-21T00:00:55.856Z,0.27
2023-01-21T00:01:58.958Z,0
2023-01-21T00:02:55.801Z,0.13
2023-01-21T00:03:55.944Z,0.15
2023-01-21T00:04:55.792Z,0.11
2023-01-21T00:05:55.815Z,0.15
2023-01-21T00:06:55.818Z,0.11
2023-01-21T00:07:55.816Z,0.12
2023-01-21T00:08:55.840Z,0.13
2023-01-21T00:09:55.818Z,0.19
2023-01-21T00:10:55.846Z,0.18
2023-01-21T00:11:55.846Z,0.19
2023-01-21T00:12:58.582Z,0.13
2023-01-21T00:13:55.811Z,0.16
2023-01-21T00:14:55.816Z,0.18
2023-01-21T00:15:56.108Z,0.23
2023-01-21T00:16:58.940Z,0.23
2023-01-21T00:17:58.872Z,0.19
2023-01-21T00:18:55.825Z,0.09
2023-01-21T00:19:56.874Z,0.18
2023-01-21T00:20:55.889Z,0.12
2023-01-21T00:21:58.947Z,0.2
2023-01-21T00:22:58.900Z,0.19
2023-01-21T00:23:59.076Z,0.18
2023-01-21T00:24:58.820Z,0.33
2023-01-21T00:25:55.844Z,0.08
2023-01-21T00:26:55.817Z,0.33
2023-01-21T00:27:55.886Z,0.24
2023-01-21T00:28:58.617Z,0.13
2023-01-21T00:29:55.844Z,0.16
2023-01-21T00:30:57.422Z,0.12
2023-01-21T00:31:55.986Z,0.29
2023-01-21T00:32:56.026Z,0.16
2023-01-21T00:33:55.847Z,0.23
2023-01-21T00:34:55.864Z,0.19
2023-01-21T00:35:55.912Z,0.23
2023-01-21T00:36:58.662Z,0.2
2023-01-21T00:37:55.851Z,0.19
2023-01-21T00:38:55.867Z,0.3
2023-01-21T00:39:58.957Z,0.26
2023-01-21T00:40:55.863Z,0.2
2023-01-21T00:41:55.855Z,0.2
2023-01-21T00:42:55.885Z,0.23
2023-01-21T00:43:55.893Z,0.19
2023-01-21T00:44:55.862Z,0.12
2023-01-21T00:45:55.950Z,0.23
2023-01-21T00:46:55.859Z,0.2
2023-01-21T00:47:55.867Z,0.13
2023-01-21T00:48:55.874Z,0.26
2023-01-21T00:49:55.881Z,0.18
2023-01-21T00:50:56.166Z,0.12
2023-01-21T00:51:55.898Z,0.16
2023-01-21T00:52:58.732Z,0.19
2023-01-21T00:53:55.855Z,0.2
2023-01-21T00:54:55.895Z,0.19
2023-01-21T00:55:59.026Z,0.24
2023-01-21T00:56:56.100Z,0.19
2023-01-21T00:57:56.019Z,0.15
2023-01-21T00:58:56.056Z,0.18
2023-01-21T00:59:55.900Z,0.19
2023-01-21T01:00:55.898Z,0.24
2023-01-21T01:01:55.973Z,0.15
2023-01-21T01:02:56.118Z,0.23
2023-01-21T01:03:55.887Z,0.2
2023-01-21T01:04:55.913Z,0.15
2023-01-21T01:05:55.920Z,0.15
2023-01-21T01:06:58.750Z,0.19
2023-01-21T01:07:55.928Z,0.23
2023-01-21T01:08:55.902Z,0.12
2023-01-21T01:09:55.887Z,0.15
2023-01-21T01:10:57.001Z,0.18
2023-01-21T01:11:58.834Z,0.23
2023-01-21T01:12:55.908Z,0.18
2023-01-21T01:13:55.912Z,0.12
2023-01-21T01:14:55.987Z,0.08
2023-01-21T01:15:56.136Z,0.12
2023-01-21T01:16:55.944Z,0.08
2023-01-21T01:18:04.639Z,0.18
2023-01-21T01:18:55.912Z,0.12
2023-01-21T01:19:55.918Z,0.02
2023-01-21T01:20:57.016Z,0.11
2023-01-21T01:21:56.156Z,0.12
2023-01-21T01:22:58.781Z,0.08
2023-01-21T01:23:55.928Z,0.12
2023-01-21T01:24:55.925Z,0.13
2023-01-21T01:25:58.737Z,0.02
2023-01-21T01:26:55.931Z,0.06
2023-01-21T01:27:55.942Z,0.19
2023-01-21T01:28:55.918Z,0.16
2023-01-21T01:29:55.942Z,0.11
2023-01-21T01:30:56.344Z,0.13
2023-01-21T01:31:56.018Z,0.15
2023-01-21T01:32:55.964Z,0.16
2023-01-21T01:33:56.293Z,0.24
2023-01-21T01:34:55.958Z,0.12
2023-01-21T01:35:55.997Z,0.16
2023-01-21T01:36:55.974Z,0.15
2023-01-21T01:37:55.941Z,0.15
2023-01-21T01:38:55.987Z,0.11
2023-01-21T01:39:55.939Z,0.18
2023-01-21T01:40:56.037Z,0.13
2023-01-21T01:41:55.930Z,0.12
2023-01-21T01:42:56.015Z,0.2
2023-01-21T01:43:55.969Z,0.12
2023-01-21T01:44:58.739Z,0.11
2023-01-21T01:45:55.978Z,0.2
2023-01-21T01:46:55.975Z,0.15
2023-01-21T01:47:55.957Z,0.27
2023-01-21T01:48:55.973Z,0.15
2023-01-21T01:49:55.987Z,0.23
2023-01-21T01:50:56.206Z,0.31
2023-01-21T01:51:55.972Z,0.26
2023-01-21T01:52:56.047Z,0.2
2023-01-21T01:53:55.959Z,0.24
2023-01-21T01:54:56.080Z,0.19
2023-01-21T01:55:59.111Z,0.29
2023-01-21T01:56:55.965Z,0.18
2023-01-21T01:57:55.991Z,0.2
2023-01-21T01:58:56.017Z,0.19
2023-01-21T01:59:56.000Z,0.2
2023-01-21T02:00:55.993Z,0.27
2023-01-21T02:01:56.228Z,0.2
2023-01-21T02:02:56.104Z,0.26
2023-01-21T02:03:55.990Z,0.29
2023-01-21T02:04:56.083Z,0.2
2023-01-21T02:05:56.006Z,0.19
2023-01-21T02:06:58.845Z,0.33
2023-01-21T02:07:55.972Z,0.27
2023-01-21T02:08:56.041Z,0.18
2023-01-21T02:09:56.041Z,0.29
2023-01-21T02:10:56.061Z,0.3
2023-01-21T02:11:58.702Z,0.34
2023-01-21T02:12:56.016Z,0.29
2023-01-21T02:13:57.167Z,0.18
2023-01-21T02:14:56.003Z,0.2
2023-01-21T02:15:56.376Z,0.3
2023-01-21T02:16:56.079Z,0.2
2023-01-21T02:17:58.753Z,0.19
2023-01-21T02:18:56.013Z,0.18
2023-01-21T02:19:56.013Z,0.15
2023-01-21T02:20:56.048Z,0.18
2023-01-21T02:21:56.074Z,0.24
2023-01-21T02:22:56.010Z,0.15
2023-01-21T02:23:55.995Z,0.34
2023-01-21T02:24:56.041Z,0.18
2023-01-21T02:25:56.030Z,0.13
2023-01-21T02:26:56.108Z,0.05
2023-01-21T02:27:56.026Z,0.09
2023-01-21T02:28:59.180Z,0.16
2023-01-21T02:29:57.038Z,0.12
2023-01-21T02:30:56.165Z,0.13
2023-01-21T02:31:56.198Z,0.12
2023-01-21T02:32:56.081Z,0.2
2023-01-21T02:33:56.072Z,0.09
2023-01-21T02:34:55.891Z,0.19
2023-01-21T02:35:56.072Z,0.2
2023-01-21T02:36:56.048Z,0.15
2023-01-21T02:37:56.368Z,0.24
2023-01-21T02:38:56.093Z,0.19
2023-01-21T02:39:58.944Z,0.16
2023-01-21T02:40:56.113Z,0.11
2023-01-21T02:41:56.111Z,0.09
2023-01-21T02:42:56.082Z,0.11
2023-01-21T02:43:56.088Z,0.09
2023-01-21T02:45:01.929Z,0.11
2023-01-21T02:45:56.080Z,0.2
2023-01-21T02:46:56.216Z,0.15
2023-01-21T02:47:56.073Z,0.11
2023-01-21T02:48:56.047Z,0.12
2023-01-21T02:49:56.088Z,0.02
2023-01-21T02:50:59.292Z,0.05
2023-01-21T02:51:56.053Z,0.09
2023-01-21T02:52:56.046Z,0
2023-01-21T02:53:56.058Z,0.05
2023-01-21T02:54:56.078Z,-0.02
2023-01-21T02:55:56.986Z,-0.03
2023-01-21T02:56:56.119Z,-0.07
2023-01-21T02:57:56.061Z,0.11
2023-01-21T02:58:56.196Z,0.13
2023-01-21T02:59:57.465Z,0.11
2023-01-21T03:00:56.270Z,0.06
2023-01-21T03:01:56.187Z,0.09
2023-01-21T03:02:56.088Z,0.16
2023-01-21T03:03:56.102Z,0.06
2023-01-21T03:04:56.090Z,0.15
2023-01-21T03:05:56.100Z,0.11
2023-01-21T03:06:59.096Z,0.09
2023-01-21T03:07:56.086Z,0.09
2023-01-21T03:08:55.939Z,0.06
2023-01-21T03:09:56.075Z,0.12
2023-01-21T03:10:56.109Z,0
2023-01-21T03:11:57.121Z,0.05
2023-01-21T03:12:58.865Z,0.02
2023-01-21T03:13:56.069Z,-0.09
2023-01-21T03:14:56.126Z,0.02
2023-01-21T03:15:56.293Z,0.02
2023-01-21T03:16:56.141Z,-0.07
2023-01-21T03:17:56.088Z,-0.03
2023-01-21T03:18:56.090Z,-0.06
2023-01-21T03:19:56.105Z,0.01
2023-01-21T03:20:56.122Z,-0.02
2023-01-21T03:21:56.089Z,-0.02
2023-01-21T03:22:58.924Z,0.02
2023-01-21T03:23:56.185Z,0.02
2023-01-21T03:24:56.147Z,0.01
2023-01-21T03:25:58.881Z,-0.05
2023-01-21T03:26:56.187Z,-0.07
2023-01-21T03:27:56.097Z,-0.2
2023-01-21T03:28:56.145Z,-0.05
2023-01-21T03:29:56.123Z,-0.07
2023-01-21T03:30:56.310Z,0
2023-01-21T03:31:56.202Z,0.01
2023-01-21T03:32:56.104Z,-0.05
2023-01-21T03:33:58.888Z,-0.06
2023-01-21T03:34:56.120Z,0.02
2023-01-21T03:35:56.142Z,0.05
2023-01-21T03:36:56.121Z,0
2023-01-21T03:37:56.171Z,-0.09
2023-01-21T03:38:59.190Z,-0.03
2023-01-21T03:39:56.123Z,-0.02
2023-01-21T03:40:56.156Z,0
2023-01-21T03:41:56.126Z,0.01
2023-01-21T03:42:56.558Z,0.06
2023-01-21T03:43:56.131Z,0.09
2023-01-21T03:44:56.443Z,0.12
2023-01-21T03:45:56.341Z,0.08
2023-01-21T03:46:56.169Z,-0.03
2023-01-21T03:47:56.167Z,0.12
2023-01-21T03:48:56.191Z,0.02
2023-01-21T03:49:58.899Z,0.13
2023-01-21T03:50:56.277Z,-0.02
2023-01-21T03:51:56.295Z,0.19
2023-01-21T03:52:56.156Z,0.11
2023-01-21T03:53:56.159Z,-0.02
2023-01-21T03:54:56.143Z,0.08
2023-01-21T03:55:56.194Z,0.12
2023-01-21T03:56:56.179Z,0.12
2023-01-21T03:57:56.160Z,0.11
2023-01-21T03:58:56.185Z,0.19
2023-01-21T03:59:56.144Z,0.02
2023-01-21T04:00:59.132Z,-0.02
2023-01-21T04:01:56.248Z,0.08
2023-01-21T04:02:56.189Z,0.05
2023-01-21T04:03:56.182Z,-0.05
2023-01-21T04:04:56.162Z,0.08
2023-01-21T04:05:56.159Z,0.15
2023-01-21T04:07:00.261Z,0.09
2023-01-21T04:07:56.181Z,0.02
2023-01-21T04:08:56.175Z,0.09
2023-01-21T04:09:56.232Z,0.01
2023-01-21T04:10:56.161Z,0.08
2023-01-21T04:11:59.221Z,0.05
2023-01-21T04:12:56.185Z,0.09
2023-01-21T04:13:56.184Z,0.16
2023-01-21T04:14:56.191Z,0.01
2023-01-21T04:15:56.192Z,0.09
2023-01-21T04:16:56.230Z,0.05
2023-01-21T04:17:56.204Z,0.09
2023-01-21T04:18:56.221Z,0.01
2023-01-21T04:19:56.244Z,0.11
2023-01-21T04:20:56.195Z,0.06
2023-01-21T04:21:56.408Z,0.16
2023-01-21T04:22:59.299Z,0.13
2023-01-21T04:23:56.218Z,0.15
2023-01-21T04:24:56.197Z,0.13
2023-01-21T04:25:56.206Z,0.08
2023-01-21T04:26:56.243Z,0.13
2023-01-21T04:27:56.266Z,0.12
2023-01-21T04:28:56.196Z,0.18
2023-01-21T04:29:57.230Z,0.12
2023-01-21T04:30:56.335Z,0.15
2023-01-21T04:31:56.559Z,0.12
2023-01-21T04:32:56.227Z,0.09
2023-01-21T04:33:59.453Z,0.16
2023-01-21T04:34:57.302Z,0.19
2023-01-21T04:35:56.218Z,0.2
2023-01-21T04:36:56.270Z,0.09
2023-01-21T04:37:56.236Z,0.19
2023-01-21T04:38:56.549Z,0.18
2023-01-21T04:39:56.226Z,0.27
2023-01-21T04:40:56.320Z,0.24
2023-01-21T04:41:56.255Z,0.15
2023-01-21T04:42:56.347Z,0.16
2023-01-21T04:43:56.306Z,0.19
2023-01-21T04:44:59.089Z,0.15
2023-01-21T04:45:56.418Z,0.31
2023-01-21T04:46:56.286Z,0.18
2023-01-21T04:47:56.247Z,0.23
2023-01-21T04:48:56.268Z,0.24
2023-01-21T04:49:56.245Z,0.24
2023-01-21T04:50:56.405Z,0.29
2023-01-21T04:51:56.252Z,0.31
2023-01-21T04:52:56.253Z,0.33
2023-01-21T04:53:56.276Z,0.34
2023-01-21T04:54:56.304Z,0.34
2023-01-21T04:55:59.298Z,0.34
2023-01-21T04:56:56.255Z,0.36
2023-01-21T04:57:56.264Z,0.29
2023-01-21T04:58:56.321Z,0.37
2023-01-21T04:59:56.276Z,0.37
2023-01-21T05:00:56.415Z,0.4
2023-01-21T05:01:56.304Z,0.42
2023-01-21T05:02:56.253Z,0.34
2023-01-21T05:03:56.255Z,0.44
2023-01-21T05:04:56.405Z,0.42
2023-01-21T05:05:56.263Z,0.48
2023-01-21T05:06:59.104Z,0.44
2023-01-21T05:07:56.258Z,0.51
2023-01-21T05:08:56.293Z,0.49
2023-01-21T05:09:56.281Z,0.42
2023-01-21T05:10:56.314Z,0.55
2023-01-21T05:11:57.999Z,0.49
2023-01-21T05:12:56.275Z,0.48
2023-01-21T05:13:56.302Z,0.47
2023-01-21T05:14:56.267Z,0.4
2023-01-21T05:15:56.579Z,0.42
2023-01-21T05:16:56.527Z,0.56
2023-01-21T05:17:59.580Z,0.4
2023-01-21T05:18:56.303Z,0.36
2023-01-21T05:19:56.298Z,0.48
2023-01-21T05:20:56.350Z,0.47
2023-01-21T05:21:56.393Z,0.44
2023-01-21T05:22:59.428Z,0.36
2023-01-21T05:23:56.305Z,0.44
2023-01-21T05:24:56.291Z,0.55
2023-01-21T05:25:56.286Z,0.45
2023-01-21T05:26:56.375Z,0.4
2023-01-21T05:27:56.375Z,0.47
2023-01-21T05:28:56.308Z,0.37
2023-01-21T05:29:56.349Z,0.37
2023-01-21T05:30:56.628Z,0.39
2023-01-21T05:31:56.468Z,0.44
2023-01-21T05:32:56.307Z,0.44
2023-01-21T05:33:59.416Z,0.39
2023-01-21T05:34:56.308Z,0.48
2023-01-21T05:35:56.334Z,0.42
2023-01-21T05:36:56.380Z,0.44
2023-01-21T05:37:57.855Z,0.52
2023-01-21T05:38:56.388Z,0.33
2023-01-21T05:39:56.333Z,0.31
2023-01-21T05:40:56.331Z,0.33
2023-01-21T05:41:56.356Z,0.33
2023-01-21T05:42:56.370Z,0.4
2023-01-21T05:43:56.343Z,0.27
2023-01-21T05:44:56.337Z,0.29
2023-01-21T05:45:56.535Z,0.36
2023-01-21T05:46:56.347Z,0.26
2023-01-21T05:47:56.359Z,0.29
2023-01-21T05:48:59.432Z,0.34
2023-01-21T05:49:59.501Z,0.3
2023-01-21T05:51:02.723Z,0.33
2023-01-21T05:51:56.416Z,0.34
2023-01-21T05:52:56.366Z,0.33
2023-01-21T05:53:56.411Z,0.29
2023-01-21T05:55:06.548Z,0.34
2023-01-21T05:55:56.348Z,0.31
2023-01-21T05:56:56.492Z,0.27
2023-01-21T05:57:56.379Z,0.19
2023-01-21T05:58:56.391Z,0.36
2023-01-21T05:59:56.450Z,0.19
2023-01-21T06:00:59.335Z,0.2
2023-01-21T06:01:56.405Z,0.29
2023-01-21T06:02:56.366Z,0.34
2023-01-21T06:03:56.664Z,0.24
2023-01-21T06:04:56.407Z,0.3
2023-01-21T06:06:02.193Z,0.27
2023-01-21T06:06:56.363Z,0.33
2023-01-21T06:07:56.361Z,0.27
2023-01-21T06:08:57.427Z,0.42
2023-01-21T06:09:56.406Z,0.26
2023-01-21T06:10:57.417Z,0.39
2023-01-21T06:11:59.197Z,0.34
2023-01-21T06:12:56.433Z,0.31
2023-01-21T06:13:56.584Z,0.23
2023-01-21T06:14:56.422Z,0.27
2023-01-21T06:15:56.731Z,0.29
2023-01-21T06:16:59.583Z,0.23
2023-01-21T06:17:56.461Z,0.29
2023-01-21T06:18:56.379Z,0.29
2023-01-21T06:19:56.402Z,0.31
2023-01-21T06:20:56.458Z,0.34
2023-01-21T06:21:56.460Z,0.34
2023-01-21T06:22:56.418Z,0.36
2023-01-21T06:23:56.411Z,0.33
2023-01-21T06:24:56.421Z,0.33
2023-01-21T06:25:56.393Z,0.36
2023-01-21T06:26:56.425Z,0.37
2023-01-21T06:27:59.424Z,0.34
2023-01-21T06:28:56.461Z,0.45
2023-01-21T06:29:56.437Z,0.33
2023-01-21T06:30:56.884Z,0.4
2023-01-21T06:31:56.791Z,0.49
2023-01-21T06:32:56.440Z,0.4
2023-01-21T06:33:56.429Z,0.47
2023-01-21T06:34:56.460Z,0.48
2023-01-21T06:35:56.449Z,0.48
2023-01-21T06:36:56.456Z,0.4
2023-01-21T06:37:56.438Z,0.42
2023-01-21T06:38:59.250Z,0.45
2023-01-21T06:39:56.479Z,0.45
2023-01-21T06:40:56.515Z,0.52
2023-01-21T06:41:59.587Z,0.55
2023-01-21T06:42:56.609Z,0.52
2023-01-21T06:43:56.433Z,0.51
2023-01-21T06:44:56.440Z,0.59
2023-01-21T06:45:56.470Z,0.58
2023-01-21T06:47:05.782Z,0.49
2023-01-21T06:47:56.432Z,0.59
2023-01-21T06:48:56.455Z,0.61
2023-01-21T06:50:01.968Z,0.66
2023-01-21T06:50:56.634Z,0.66
2023-01-21T06:51:56.614Z,0.67
2023-01-21T06:52:56.500Z,0.64
2023-01-21T06:53:56.468Z,0.58
2023-01-21T06:54:56.509Z,0.64
2023-01-21T06:55:56.478Z,0.63
2023-01-21T06:56:56.482Z,0.56
2023-01-21T06:57:56.515Z,0.55
2023-01-21T06:58:56.491Z,0.59
2023-01-21T06:59:56.585Z,0.56
2023-01-21T07:00:59.186Z,0.51
2023-01-21T07:01:56.663Z,0.58
2023-01-21T07:02:56.663Z,0.63
2023-01-21T07:03:56.626Z,0.56
2023-01-21T07:04:58.991Z,0.59
2023-01-21T07:05:56.435Z,0.58
2023-01-21T07:06:56.442Z,0.61
2023-01-21T07:07:56.522Z,0.56
2023-01-21T07:08:56.530Z,0.61
2023-01-21T07:09:59.649Z,0.56
2023-01-21T07:10:56.472Z,0.68
2023-01-21T07:11:59.571Z,0.55
2023-01-21T07:12:56.527Z,0.52
2023-01-21T07:13:56.517Z,0.55
2023-01-21T07:14:56.538Z,0.61
2023-01-21T07:15:56.680Z,0.55
2023-01-21T07:16:56.515Z,0.52
2023-01-21T07:17:56.545Z,0.64
2023-01-21T07:18:56.504Z,0.63
2023-01-21T07:19:56.474Z,0.61
2023-01-21T07:20:56.569Z,0.71
2023-01-21T07:21:56.610Z,0.71
2023-01-21T07:22:59.295Z,0.66
2023-01-21T07:23:56.668Z,0.78
2023-01-21T07:24:56.564Z,0.77
2023-01-21T07:25:56.670Z,0.77
2023-01-21T07:26:56.664Z,0.77
2023-01-21T07:27:56.936Z,0.73
2023-01-21T07:28:56.514Z,0.82
2023-01-21T07:29:56.643Z,0.76
2023-01-21T07:30:56.803Z,0.77
2023-01-21T07:31:56.871Z,0.73
2023-01-21T07:32:56.568Z,0.76
2023-01-21T07:33:59.682Z,0.82
2023-01-21T07:34:56.518Z,0.81
2023-01-21T07:35:56.613Z,0.89
2023-01-21T07:36:56.541Z,0.86
2023-01-21T07:37:56.580Z,0.85
2023-01-21T07:38:59.653Z,0.77
2023-01-21T07:39:59.123Z,0.77
2023-01-21T07:40:56.673Z,0.77
2023-01-21T07:41:56.550Z,0.82
2023-01-21T07:42:56.535Z,0.86
2023-01-21T07:43:56.581Z,0.73
2023-01-21T07:44:59.295Z,0.73
2023-01-21T07:45:58.551Z,0.77
2023-01-21T07:46:56.675Z,0.7
2023-01-21T07:47:56.555Z,0.76
2023-01-21T07:48:56.537Z,0.73
2023-01-21T07:49:59.382Z,0.73
2023-01-21T07:50:56.659Z,0.78
2023-01-21T07:51:56.513Z,0.84
2023-01-21T07:52:56.546Z,0.78
2023-01-21T07:53:56.526Z,0.82
2023-01-21T07:54:56.564Z,0.82
2023-01-21T07:55:56.539Z,0.77
2023-01-21T07:56:56.534Z,0.82
2023-01-21T07:57:56.539Z,0.76
2023-01-21T07:58:56.536Z,0.84
2023-01-21T07:59:56.553Z,0.82
2023-01-21T08:00:59.555Z,0.77
2023-01-21T08:01:57.036Z,0.84
2023-01-21T08:02:56.865Z,0.81
2023-01-21T08:03:56.552Z,0.77
2023-01-21T08:04:56.568Z,0.96
2023-01-21T08:05:56.592Z,0.91
2023-01-21T08:06:56.527Z,0.88
2023-01-21T08:07:56.559Z,0.88
2023-01-21T08:08:56.538Z,0.77
2023-01-21T08:09:56.561Z,0.84
2023-01-21T08:10:56.551Z,0.78
2023-01-21T08:11:56.543Z,0.74
2023-01-21T08:12:56.601Z,0.85
2023-01-21T08:13:56.617Z,0.74
2023-01-21T08:14:56.664Z,0.91
2023-01-21T08:15:56.856Z,0.85
2023-01-21T08:16:59.414Z,0.81
2023-01-21T08:17:56.648Z,0.95
2023-01-21T08:18:56.588Z,0.82
2023-01-21T08:19:56.588Z,0.81
2023-01-21T08:20:56.569Z,0.92
2023-01-21T08:21:56.598Z,0.88
2023-01-21T08:22:56.763Z,0.88
2023-01-21T08:23:56.676Z,1.04
2023-01-21T08:24:56.573Z,0.92
2023-01-21T08:25:56.596Z,0.89
2023-01-21T08:26:56.583Z,0.95
2023-01-21T08:27:59.606Z,0.96
2023-01-21T08:28:56.613Z,0.92
2023-01-21T08:29:56.744Z,1
2023-01-21T08:30:56.803Z,0.94
2023-01-21T08:31:57.103Z,0.95
2023-01-21T08:32:58.140Z,0.94
2023-01-21T08:33:56.579Z,0.99
2023-01-21T08:34:56.615Z,0.99
2023-01-21T08:35:56.602Z,0.99
2023-01-21T08:36:56.663Z,1
2023-01-21T08:37:56.692Z,0.94
2023-01-21T08:38:59.710Z,1.03
2023-01-21T08:39:56.609Z,1.04
2023-01-21T08:40:56.600Z,0.91
2023-01-21T08:41:56.607Z,1
2023-01-21T08:42:56.677Z,0.91
2023-01-21T08:43:59.623Z,1.02
2023-01-21T08:44:56.609Z,1
2023-01-21T08:45:56.854Z,1.1
2023-01-21T08:46:56.616Z,1.04
2023-01-21T08:47:56.651Z,1.09
2023-01-21T08:48:56.614Z,1.09
2023-01-21T08:49:56.838Z,1.04
2023-01-21T08:50:56.853Z,1.1
2023-01-21T08:51:57.682Z,1.13
2023-01-21T08:52:56.341Z,1.18
2023-01-21T08:53:56.694Z,1.18
2023-01-21T08:55:00.305Z,1.18
2023-01-21T08:55:56.711Z,1.13
2023-01-21T08:56:56.680Z,1.21
2023-01-21T08:57:56.682Z,1.21
2023-01-21T08:58:56.734Z,1.14
2023-01-21T08:59:56.681Z,1.25
2023-01-21T09:00:56.822Z,1.06
2023-01-21T09:01:56.791Z,1.21
2023-01-21T09:02:56.701Z,1.16
2023-01-21T09:03:56.825Z,1.21
2023-01-21T09:04:56.614Z,1.21
2023-01-21T09:05:59.963Z,1.24
2023-01-21T09:06:56.717Z,1.24
2023-01-21T09:07:58.448Z,1.21
2023-01-21T09:08:56.662Z,1.3
2023-01-21T09:09:56.668Z,1.21
2023-01-21T09:10:56.648Z,1.39
2023-01-21T09:11:56.629Z,1.2
2023-01-21T09:12:56.661Z,1.28
2023-01-21T09:13:56.667Z,1.24
2023-01-21T09:14:56.636Z,1.34
2023-01-21T09:15:56.688Z,1.25
2023-01-21T09:16:59.467Z,1.3
2023-01-21T09:17:56.698Z,1.27
2023-01-21T09:18:56.663Z,1.2
2023-01-21T09:19:59.233Z,1.34
2023-01-21T09:20:56.692Z,1.3
2023-01-21T09:21:56.693Z,1.34
2023-01-21T09:22:56.709Z,1.32
2023-01-21T09:23:56.656Z,1.32
2023-01-21T09:24:56.669Z,1.32
2023-01-21T09:25:56.680Z,1.39
2023-01-21T09:26:56.684Z,1.38
2023-01-21T09:27:59.827Z,1.38
2023-01-21T09:28:56.681Z,1.4
2023-01-21T09:29:56.664Z,1.46
2023-01-21T09:30:56.864Z,1.39
2023-01-21T09:31:56.998Z,1.43
2023-01-21T09:32:57.693Z,1.48
2023-01-21T09:33:56.692Z,1.57
2023-01-21T09:34:56.729Z,1.48
2023-01-21T09:35:56.696Z,1.56
2023-01-21T09:36:56.712Z,1.57
2023-01-21T09:37:56.700Z,1.61
2023-01-21T09:38:59.811Z,1.42
2023-01-21T09:39:56.692Z,1.48
2023-01-21T09:40:56.709Z,1.57
2023-01-21T09:41:56.720Z,1.56
2023-01-21T09:42:56.707Z,1.57
2023-01-21T09:43:56.691Z,1.6
2023-01-21T09:44:56.702Z,1.61
2023-01-21T09:45:56.914Z,1.58
2023-01-21T09:46:56.704Z,1.57
2023-01-21T09:47:56.737Z,1.61
2023-01-21T09:48:56.724Z,1.57
2023-01-21T09:49:59.927Z,1.67
2023-01-21T09:50:56.778Z,1.64
2023-01-21T09:51:57.479Z,1.64
2023-01-21T09:52:56.744Z,1.7
2023-01-21T09:53:56.702Z,1.64
2023-01-21T09:54:56.766Z,1.66
2023-01-21T09:55:56.729Z,1.66
2023-01-21T09:56:56.699Z,1.64
2023-01-21T09:57:56.741Z,1.68
2023-01-21T09:58:56.719Z,1.71
2023-01-21T09:59:56.700Z,1.71
2023-01-21T10:01:00.029Z,1.68
2023-01-21T10:01:56.723Z,1.71
2023-01-21T10:02:56.729Z,1.76
2023-01-21T10:03:56.751Z,1.68
2023-01-21T10:04:56.891Z,1.79
2023-01-21T10:05:59.510Z,1.61
2023-01-21T10:06:56.743Z,1.66
2023-01-21T10:07:56.762Z,1.74
2023-01-21T10:08:56.740Z,1.71
2023-01-21T10:09:56.767Z,1.71
2023-01-21T10:10:56.775Z,1.68
2023-01-21T10:11:59.878Z,1.71
2023-01-21T10:12:56.589Z,1.75
2023-01-21T10:13:56.783Z,1.75
2023-01-21T10:14:56.747Z,1.71
2023-01-21T10:15:56.736Z,1.81
2023-01-21T10:17:00.164Z,1.74
2023-01-21T10:17:56.805Z,1.7
2023-01-21T10:18:56.808Z,1.76
2023-01-21T10:19:56.765Z,1.68
2023-01-21T10:20:56.880Z,1.71
2023-01-21T10:21:56.797Z,1.7
2023-01-21T10:22:59.515Z,1.7
2023-01-21T10:23:56.801Z,1.74
2023-01-21T10:24:56.770Z,1.61
2023-01-21T10:25:56.794Z,1.64
2023-01-21T10:26:56.799Z,1.67
2023-01-21T10:27:59.629Z,1.64
2023-01-21T10:28:56.784Z,1.66
2023-01-21T10:29:56.824Z,1.74
2023-01-21T10:30:57.160Z,1.64
2023-01-21T10:31:57.133Z,1.64
2023-01-21T10:32:56.823Z,1.61
2023-01-21T10:33:56.940Z,1.66
2023-01-21T10:34:56.832Z,1.52
2023-01-21T10:35:56.872Z,1.66
2023-01-21T10:36:56.815Z,1.67
2023-01-21T10:37:56.856Z,1.74
2023-01-21T10:38:56.825Z,1.57
2023-01-21T10:39:57.004Z,1.61
2023-01-21T10:40:56.797Z,2.68
2023-01-21T10:42:00.062Z,2.93
2023-01-21T10:42:56.781Z,2.55
2023-01-21T10:43:59.726Z,2.47
2023-01-21T10:44:56.839Z,2.44
2023-01-21T10:45:57.027Z,2.43
2023-01-21T10:46:56.823Z,2.32
2023-01-21T10:47:56.856Z,2.37
2023-01-21T10:48:56.870Z,2.47
2023-01-21T10:49:56.980Z,2.25
2023-01-21T10:50:57.061Z,2.22
2023-01-21T10:51:56.866Z,2.32
2023-01-21T10:52:59.818Z,2.3
2023-01-21T10:53:56.870Z,2.18
2023-01-21T10:54:59.711Z,2.34
2023-01-21T10:55:56.890Z,2.32
2023-01-21T10:56:56.911Z,2.23
2023-01-21T10:57:56.961Z,2.19
2023-01-21T10:58:56.939Z,2.16
2023-01-21T10:59:59.966Z,2.22
2023-01-21T11:00:56.853Z,2.15
2023-01-21T11:01:56.907Z,2.18
2023-01-21T11:02:58.090Z,2.05
2023-01-21T11:03:57.995Z,2.14
2023-01-21T11:04:56.884Z,2
2023-01-21T11:05:56.859Z,2.07
2023-01-21T11:06:56.888Z,2.05
2023-01-21T11:07:56.877Z,2.08
2023-01-21T11:08:57.124Z,1.95
2023-01-21T11:09:57.143Z,1.81
2023-01-21T11:11:00.135Z,2.1
2023-01-21T11:11:56.913Z,2.1
2023-01-21T11:12:56.884Z,2.12
2023-01-21T11:13:56.904Z,1.97
2023-01-21T11:14:57.095Z,2.01
2023-01-21T11:15:57.057Z,2.03
2023-01-21T11:16:56.918Z,2.1
2023-01-21T11:17:56.883Z,1.93
2023-01-21T11:18:56.898Z,2.08
2023-01-21T11:19:56.878Z,2.01
2023-01-21T11:20:56.905Z,2.04
2023-01-21T11:21:59.855Z,2
2023-01-21T11:22:56.864Z,1.95
2023-01-21T11:23:56.872Z,2.05
2023-01-21T11:24:56.899Z,1.97
2023-01-21T11:25:56.898Z,1.97
2023-01-21T11:26:56.973Z,2.15
2023-01-21T11:27:56.907Z,1.95
2023-01-21T11:28:56.956Z,2.1
2023-01-21T11:29:57.002Z,1.95
2023-01-21T11:30:58.557Z,2.05
2023-01-21T11:31:57.244Z,2.08
2023-01-21T11:33:00.046Z,2.12
2023-01-21T11:33:56.901Z,2.22
2023-01-21T11:34:56.962Z,2.08
2023-01-21T11:35:56.986Z,2.22
2023-01-21T11:36:57.087Z,2.14
2023-01-21T11:37:56.961Z,2.18
2023-01-21T11:38:57.011Z,2.21
2023-01-21T11:39:56.933Z,2.3
2023-01-21T11:40:56.900Z,2.26
2023-01-21T11:41:56.993Z,2.26
2023-01-21T11:42:56.960Z,2.28
2023-01-21T11:44:00.031Z,2.12
2023-01-21T11:44:57.003Z,2.22
2023-01-21T11:45:57.159Z,2.19
2023-01-21T11:46:57.060Z,2.33
2023-01-21T11:47:57.152Z,2.34
2023-01-21T11:48:57.034Z,2.26
2023-01-21T11:49:56.945Z,2.3
2023-01-21T11:50:57.043Z,2.22
2023-01-21T11:51:57.041Z,2.3
2023-01-21T11:52:56.933Z,2.26
2023-01-21T11:53:57.066Z,2.36
2023-01-21T11:54:59.803Z,2.21
2023-01-21T11:55:56.954Z,2.33
2023-01-21T11:56:56.990Z,2.22
2023-01-21T11:57:56.980Z,2.34
2023-01-21T11:58:57.363Z,2.22
2023-01-21T11:59:57.042Z,2.34
2023-01-21T12:00:56.956Z,2.23
2023-01-21T12:01:57.036Z,2.15
2023-01-21T12:02:57.288Z,2.1
2023-01-21T12:03:57.335Z,2.16
2023-01-21T12:04:57.005Z,2.22
2023-01-21T12:05:59.988Z,2.3
2023-01-21T12:06:56.952Z,2.16
2023-01-21T12:07:56.962Z,2.36
2023-01-21T12:08:57.013Z,2.32
2023-01-21T12:09:56.990Z,2.39
2023-01-21T12:10:56.988Z,2.4
2023-01-21T12:11:56.994Z,2.3
2023-01-21T12:12:56.993Z,2.26
2023-01-21T12:13:57.158Z,2.16
2023-01-21T12:14:57.022Z,2.12
2023-01-21T12:15:57.149Z,2.16
2023-01-21T12:17:00.177Z,2.22
2023-01-21T12:17:57.008Z,2.36
2023-01-21T12:18:57.008Z,2.33
2023-01-21T12:19:56.992Z,2.26
2023-01-21T12:20:57.044Z,2.3
2023-01-21T12:21:56.987Z,2.33
2023-01-21T12:22:57.003Z,2.23
2023-01-21T12:23:59.990Z,2.18
2023-01-21T12:24:56.976Z,2.05
2023-01-21T12:25:57.094Z,2.23
2023-01-21T12:26:56.991Z,2.19
2023-01-21T12:27:59.770Z,2.28
2023-01-21T12:28:57.059Z,2.28
2023-01-21T12:29:57.089Z,2.33
2023-01-21T12:30:57.350Z,2.41
2023-01-21T12:31:57.368Z,2.47
2023-01-21T12:32:59.823Z,2.55
2023-01-21T12:33:57.129Z,2.61
2023-01-21T12:34:56.992Z,2.58
2023-01-21T12:35:57.001Z,2.44
2023-01-21T12:36:57.045Z,2.5
2023-01-21T12:37:57.042Z,2.57
2023-01-21T12:38:59.854Z,2.57
2023-01-21T12:39:57.117Z,2.54
2023-01-21T12:40:57.010Z,2.43
2023-01-21T12:41:57.080Z,2.62
2023-01-21T12:42:57.060Z,2.57
2023-01-21T12:43:58.449Z,2.61
2023-01-21T12:44:57.071Z,2.59
2023-01-21T12:45:57.052Z,2.58
2023-01-21T12:46:57.320Z,2.57
2023-01-21T12:47:57.175Z,2.51
2023-01-21T12:48:57.136Z,2.55
2023-01-21T12:49:57.069Z,2.65
2023-01-21T12:50:57.215Z,2.62
2023-01-21T12:51:57.079Z,2.59
2023-01-21T12:52:57.089Z,2.54
2023-01-21T12:53:57.212Z,2.55
2023-01-21T12:55:00.164Z,2.57
2023-01-21T12:55:57.236Z,2.52
2023-01-21T12:56:57.042Z,2.46
2023-01-21T12:57:57.027Z,2.51
2023-01-21T12:58:57.141Z,2.54
2023-01-21T12:59:57.511Z,2.46
2023-01-21T13:00:57.254Z,2.46
2023-01-21T13:01:57.247Z,2.57
2023-01-21T13:02:57.065Z,2.52
2023-01-21T13:03:57.204Z,2.52
2023-01-21T13:04:57.038Z,2.52
2023-01-21T13:05:57.037Z,2.5
2023-01-21T13:06:59.219Z,2.34
2023-01-21T13:07:57.122Z,2.34
2023-01-21T13:08:57.078Z,2.33
2023-01-21T13:09:57.014Z,2.33
2023-01-21T13:11:00.088Z,2.33
2023-01-21T13:11:57.044Z,2.37
2023-01-21T13:12:57.033Z,2.44
2023-01-21T13:14:18.033Z,2.33
2023-01-21T13:14:57.026Z,2.32
2023-01-21T13:15:57.347Z,2.26
2023-01-21T13:16:57.031Z,2.25
2023-01-21T13:17:57.042Z,2.16
2023-01-21T13:18:57.078Z,2.28
2023-01-21T13:19:57.224Z,2.32
2023-01-21T13:21:05.942Z,2.33
2023-01-21T13:22:00.073Z,2.3